createdAt,value
2019-02-24T00:05:41.111Z,25.87
2019-02-24T00:11:45.555Z,28.20
2019-02-24T00:17:49.739Z,28.63
2019-02-24T00:23:54.044Z,31.93
2019-02-24T00:29:58.357Z,31.50
2019-02-24T00:36:02.670Z,28.67
2019-02-24T00:42:07.169Z,29.13
2019-02-24T00:48:11.441Z,29.65
2019-02-24T00:54:15.653Z,29.43
2019-02-24T01:00:19.932Z,29.63
2019-02-24T01:06:24.142Z,28.73
2019-02-24T01:12:28.366Z,30.13
2019-02-24T01:18:32.580Z,31.47
2019-02-24T01:24:36.854Z,32.87
2019-02-24T01:30:41.075Z,33.40
2019-02-24T01:36:45.344Z,30.87
2019-02-24T01:42:49.544Z,32.67
2019-02-24T01:48:54.148Z,34.37
2019-02-24T01:54:58.352Z,34.47
2019-02-24T02:01:02.540Z,34.97
2019-02-24T02:07:06.754Z,38.13
2019-02-24T02:13:11.074Z,34.87
2019-02-24T02:19:15.332Z,30.93
2019-02-24T02:25:19.633Z,33.60
2019-02-24T02:31:23.886Z,30.83
2019-02-24T02:37:28.095Z,35.27
2019-02-24T02:43:32.339Z,33.13
2019-02-24T02:49:36.631Z,30.60
2019-02-24T02:55:40.858Z,31.60
2019-02-24T03:01:45.219Z,31.83
2019-02-24T03:07:55.552Z,32.17
2019-02-24T03:14:00.167Z,30.53
2019-02-24T03:20:04.488Z,35.87
2019-02-24T03:26:08.724Z,31.30
2019-02-24T03:32:15.946Z,29.17
2019-02-24T03:38:20.144Z,32.20
2019-02-24T03:44:24.421Z,32.20
2019-02-24T03:50:28.621Z,33.03
2019-02-24T03:56:32.903Z,32.53
2019-02-24T04:02:37.127Z,29.83
2019-02-24T04:08:41.336Z,29.37
2019-02-24T04:14:45.531Z,28.83
2019-02-24T04:20:49.746Z,32.07
2019-02-24T04:26:54.011Z,27.57
2019-02-24T04:32:58.321Z,27.27
2019-02-24T04:39:02.708Z,36.27
2019-02-24T04:45:06.914Z,31.93
2019-02-24T04:51:11.118Z,29.90
2019-02-24T04:57:15.398Z,27.30
2019-02-24T05:03:19.666Z,28.20
2019-02-24T05:09:23.872Z,29.10
2019-02-24T05:15:28.111Z,29.90
2019-02-24T05:21:32.289Z,35.30
2019-02-24T05:27:36.604Z,32.50
2019-02-24T05:33:40.823Z,32.87
2019-02-24T05:39:45.148Z,35.23
2019-02-24T05:45:49.365Z,33.20
2019-02-24T05:51:53.778Z,32.70
2019-02-24T05:57:57.968Z,33.20
2019-02-24T06:04:02.369Z,29.43
2019-02-24T06:10:06.780Z,33.93
2019-02-24T06:16:11.040Z,35.90
2019-02-24T06:22:15.334Z,49.93
2019-02-24T06:28:19.514Z,38.70
2019-02-24T06:34:23.711Z,35.47
2019-02-24T06:40:28.061Z,33.00
2019-02-24T06:46:32.253Z,34.03
2019-02-24T06:52:36.530Z,37.00
2019-02-24T06:58:40.733Z,38.77
2019-02-24T07:04:45.100Z,35.90
2019-02-24T07:10:49.415Z,38.77
2019-02-24T07:16:53.621Z,38.20
2019-02-24T07:22:57.838Z,39.37
2019-02-24T07:29:02.423Z,36.23
2019-02-24T07:35:06.785Z,38.37
2019-02-24T07:41:11.018Z,34.73
2019-02-24T07:47:15.214Z,32.37
2019-02-24T07:53:19.427Z,33.33
2019-02-24T07:59:23.634Z,31.33
2019-02-24T08:05:27.866Z,30.57
2019-02-24T08:11:32.149Z,28.50
2019-02-24T08:17:36.374Z,31.80
2019-02-24T08:23:40.574Z,27.33
2019-02-24T08:29:45.044Z,26.27
2019-02-24T08:35:49.379Z,28.50
2019-02-24T08:41:53.653Z,24.23
2019-02-24T08:47:57.894Z,24.47
2019-02-24T08:54:02.090Z,25.85
2019-02-24T09:00:07.870Z,21.90
2019-02-24T09:06:12.070Z,23.93
2019-02-24T09:12:16.416Z,22.95
2019-02-24T09:18:20.638Z,24.80
2019-02-24T09:24:24.918Z,18.77
2019-02-24T09:30:29.254Z,20.85
2019-02-24T09:36:33.528Z,19.92
2019-02-24T09:42:37.774Z,18.50
2019-02-24T09:48:42.033Z,19.90
2019-02-24T09:54:46.323Z,16.25
2019-02-24T10:00:50.579Z,24.02
2019-02-24T10:06:54.816Z,23.62
2019-02-24T10:12:59.201Z,16.62
2019-02-24T10:19:03.840Z,22.77
2019-02-24T10:25:08.190Z,17.62
2019-02-24T10:31:19.620Z,17.17
2019-02-24T10:37:18.547Z,18.07
2019-02-24T10:43:22.918Z,22.10
2019-02-24T10:49:27.115Z,17.50
2019-02-24T10:55:31.524Z,15.13
2019-02-24T11:01:35.785Z,15.05
2019-02-24T11:07:40.161Z,16.50
2019-02-24T11:13:44.350Z,14.45
2019-02-24T11:19:48.597Z,15.83
2019-02-24T11:25:52.794Z,15.50
2019-02-24T11:31:57.982Z,15.68
2019-02-24T11:38:02.251Z,13.00
2019-02-24T11:44:06.679Z,13.40
2019-02-24T11:50:10.889Z,16.57
2019-02-24T11:56:15.266Z,14.18
2019-02-24T12:02:19.543Z,14.15
2019-02-24T12:08:23.912Z,12.80
2019-02-24T12:14:28.240Z,14.18
2019-02-24T12:20:32.482Z,13.48
2019-02-24T12:26:36.838Z,11.68
2019-02-24T12:32:41.206Z,11.28
2019-02-24T12:38:45.793Z,11.35
2019-02-24T12:44:50.073Z,12.63
2019-02-24T12:50:54.266Z,11.35
2019-02-24T12:56:58.503Z,10.60
2019-02-24T13:03:03.062Z,9.73
2019-02-24T13:09:10.218Z,9.45
2019-02-24T13:15:14.517Z,9.30
2019-02-24T13:21:18.838Z,9.55
2019-02-24T13:27:23.121Z,10.15
2019-02-24T13:33:27.447Z,9.55
2019-02-24T13:39:31.766Z,9.08
2019-02-24T13:45:36.134Z,8.93
2019-02-24T13:51:40.432Z,8.58
2019-02-24T13:57:44.746Z,9.28
2019-02-24T14:03:49.035Z,9.05
2019-02-24T14:09:53.374Z,8.95
2019-02-24T14:15:57.709Z,9.00
2019-02-24T14:22:02.013Z,8.05
2019-02-24T14:28:06.362Z,8.05
2019-02-24T14:34:10.669Z,7.55
2019-02-24T14:40:15.037Z,6.50
2019-02-24T14:46:19.364Z,7.30
2019-02-24T14:52:23.689Z,7.95
2019-02-24T14:58:27.913Z,10.03
2019-02-24T15:04:32.201Z,9.25
2019-02-24T15:10:36.485Z,8.88
2019-02-24T15:16:40.809Z,7.70
2019-02-24T15:22:45.152Z,9.68
2019-02-24T15:28:49.451Z,11.38
2019-02-24T15:34:53.771Z,10.78
2019-02-24T15:40:58.083Z,13.13
2019-02-24T15:47:02.421Z,12.28
2019-02-24T15:53:06.952Z,10.72
2019-02-24T15:59:11.286Z,10.18
2019-02-24T16:05:15.496Z,13.75
2019-02-24T16:11:19.778Z,15.95
2019-02-24T16:17:24.064Z,13.03
2019-02-24T16:23:28.280Z,16.27
2019-02-24T16:29:32.510Z,19.67
2019-02-24T16:35:36.931Z,13.25
2019-02-24T16:41:41.251Z,16.80
2019-02-24T16:47:45.579Z,16.77
2019-02-24T16:53:49.856Z,16.55
2019-02-24T16:59:54.129Z,20.55
2019-02-24T17:05:58.414Z,19.75
2019-02-24T17:12:02.642Z,19.85
2019-02-24T17:18:06.923Z,20.95
2019-02-24T17:24:11.156Z,31.10
2019-02-24T17:30:15.830Z,25.75
2019-02-24T17:36:20.208Z,19.42
2019-02-24T17:42:24.813Z,22.02
2019-02-24T17:48:29.132Z,23.20
2019-02-24T17:54:33.340Z,40.55
2019-02-24T18:00:43.320Z,16.12
2019-02-24T18:06:47.563Z,22.27
2019-02-24T18:12:51.873Z,18.15
2019-02-24T18:18:56.153Z,18.75
2019-02-24T18:25:03.080Z,22.73
2019-02-24T18:31:06.571Z,17.90
2019-02-24T18:37:10.817Z,20.45
2019-02-24T18:43:15.115Z,19.70
2019-02-24T18:49:19.408Z,21.48
2019-02-24T18:55:24.649Z,20.20
2019-02-24T19:01:28.860Z,21.42
2019-02-24T19:07:33.109Z,23.92
2019-02-24T19:13:37.393Z,23.47
2019-02-24T19:19:41.680Z,27.45
2019-02-24T19:25:45.877Z,36.68
2019-02-24T19:31:50.179Z,31.60
2019-02-24T19:37:54.437Z,29.02
2019-02-24T19:43:58.677Z,42.60
2019-02-24T19:50:02.933Z,31.25
2019-02-24T19:56:07.232Z,31.45
2019-02-24T20:02:11.748Z,28.67
2019-02-24T20:08:15.939Z,25.43
2019-02-24T20:14:20.130Z,29.02
2019-02-24T20:20:24.364Z,25.10
2019-02-24T20:26:28.685Z,24.23
2019-02-24T20:32:32.944Z,22.82
2019-02-24T20:38:37.163Z,21.65
2019-02-24T20:44:41.546Z,23.10
2019-02-24T20:50:45.820Z,22.60
2019-02-24T20:56:50.047Z,20.05
2019-02-24T21:02:54.360Z,23.35
2019-02-24T21:08:58.642Z,23.42
2019-02-24T21:15:02.850Z,20.85
2019-02-24T21:21:07.139Z,19.82
2019-02-24T21:27:11.349Z,19.82
2019-02-24T21:33:15.591Z,17.57
2019-02-24T21:39:19.831Z,20.02
2019-02-24T21:45:24.339Z,19.32
2019-02-24T21:51:28.639Z,21.75
2019-02-24T21:57:32.924Z,19.05
2019-02-24T22:03:37.195Z,19.20
2019-02-24T22:09:41.413Z,18.52
2019-02-24T22:15:45.624Z,18.12
2019-02-24T22:21:49.857Z,19.75
2019-02-24T22:27:54.073Z,20.12
2019-02-24T22:33:58.467Z,19.70
2019-02-24T22:40:02.817Z,19.80
2019-02-24T22:46:07.101Z,19.67
2019-02-24T22:52:11.305Z,18.50
2019-02-24T22:58:15.545Z,18.02
2019-02-24T23:04:19.880Z,19.52
2019-02-24T23:10:24.185Z,17.75
2019-02-24T23:16:28.454Z,15.88
2019-02-24T23:22:32.774Z,16.17
2019-02-24T23:28:36.982Z,18.37
2019-02-24T23:34:41.216Z,17.90
2019-02-24T23:40:45.512Z,17.65
2019-02-24T23:46:49.726Z,16.52
2019-02-24T23:52:53.930Z,20.37
2019-02-24T23:58:58.163Z,18.48
